Virtual Airlines Manager

 METAR AND TAF INFORMATION
METAR FOR GOOY
ADDS - METARS form results

(0519 UTC 19 August 2017)
Data provider http://aviationweather.gov/adds/metars/
 
METAR text: GOOY 190500Z 32012KT 9999 SCT010 27/24 Q1006 WS R36 NOSIG
Conditions at: GOOY (DAKAR/YOFF , SN) observed 0500 UTC 19 August 2017
Temperature: 27.0°C (81°F)
Dewpoint: 24.0°C (75°F) [RH = 84%]
Pressure (altimeter): 29.70 inches Hg (1006.0 mb)
Winds: from the NW (320 degrees) at 14 MPH (12 knots; 6.2 m/s)
Visibility: 6 or more miles (10+ km)
Ceiling: at least 12,000 feet AGL
Clouds: scattered clouds at 1000 feet AGL
Weather: no significant weather observed at this time

METAR text: GOOY 190430Z 33012KT 9999 SCT010 27/24 Q1007 WS R36 NOSIG
Conditions at: GOOY (DAKAR/YOFF , SN) observed 0430 UTC 19 August 2017
Temperature: 27.0°C (81°F)
Dewpoint: 24.0°C (75°F) [RH = 84%]
Pressure (altimeter): 29.73 inches Hg (1007.0 mb)
Winds: from the NNW (330 degrees) at 14 MPH (12 knots; 6.2 m/s)
Visibility: 6 or more miles (10+ km)
Ceiling: at least 12,000 feet AGL
Clouds: scattered clouds at 1000 feet AGL
Weather: no significant weather observed at this time

Forecast for: GOOY (DAKAR/YOFF , SN)
Text: TAF GOOY 182330Z 1900/2006 31014KT 9999 SCT010
Forecast period: 0000 UTC 19 August 2017 to 0600 UTC 20 August 2017
Forecast type: FROM: standard forecast or significant change
Winds: from the NW (310 degrees) at 16 MPH (14 knots; 7.3 m/s)
Visibility: 6 or more miles (10+ km)
Clouds: scattered clouds at 1000 feet AGL
Weather: no significant weather forecast for this period
Text: PROB30
Forecast period: 1800 UTC 19 August 2017 to 0000 UTC 20 August 2017
Forecast type: TEMPORARY: The following changes expected for less than half the time period
Visibility: 2.80 miles (4.51 km)
Ceiling: 1000 feet AGL
Clouds: broken clouds at 1000 feet AGL
few clouds at 2500 feet AGL
Weather: TSRA  (rain associated with thunderstorm(s))

 AIRPORT MAP

 RUNWAY INFORMATION
Runway 03 Runway length 4921 ft Runway width 98 ft
Runway elevation 63 ft Runway displaced threshold 0 ft Runway heading 23
Runway 21 Runway length 4921 ft Runway width 98 ft
Runway elevation 56 ft Runway displaced threshold 0 ft Runway heading 203
Runway 18 Runway length 11450 ft Runway width 148 ft
Runway elevation 64 ft Runway displaced threshold 525 ft Runway heading 173
Runway 36 Runway length 11450 ft Runway width 148 ft
Runway elevation 75 ft Runway displaced threshold 0 ft Runway heading 353

 AIRPORT FREQUENCIES
Type APP Name DAKAR CON Frequency 120.5 MHZ
Type INFO Name DAKAR INFO Frequency 129.5 MHZ
Type INFO Name DAKAR INFO Frequency 345.2 MHZ
Type TWR Name DAKAR TWR Frequency 118.1 MHZ

 AIRPORT NEAR NAVIGATION AIDS
Type NDB Name Dakar Frequency 323 KHZ
Type VOR-DME Name Dakar Frequency 113100 KHZ



Powered by Virtual Airlines Manager [v2.6.2]